sensor_id;sensor_type;location;lat;lon;timestamp;P1;durP1;ratioP1;P2;durP2;ratioP2
65751;SDS011;52486;51.098;13.770;2023-02-28T00:00:47;1.40;;;1.30;;
65751;SDS011;52486;51.098;13.770;2023-02-28T00:03:14;1.75;;;1.60;;
65751;SDS011;52486;51.098;13.770;2023-02-28T00:05:40;2.50;;;1.67;;
65751;SDS011;52486;51.098;13.770;2023-02-28T00:08:07;1.98;;;1.35;;
65751;SDS011;52486;51.098;13.770;2023-02-28T00:10:33;1.60;;;1.38;;
65751;SDS011;52486;51.098;13.770;2023-02-28T00:13:00;2.05;;;1.70;;
65751;SDS011;52486;51.098;13.770;2023-02-28T00:15:28;2.20;;;1.63;;
65751;SDS011;52486;51.098;13.770;2023-02-28T00:17:54;1.58;;;1.48;;
65751;SDS011;52486;51.098;13.770;2023-02-28T00:20:20;2.58;;;1.42;;
65751;SDS011;52486;51.098;13.770;2023-02-28T00:22:50;1.80;;;1.30;;
65751;SDS011;52486;51.098;13.770;2023-02-28T00:25:17;3.58;;;1.48;;
65751;SDS011;52486;51.098;13.770;2023-02-28T00:27:43;2.10;;;1.90;;
65751;SDS011;52486;51.098;13.770;2023-02-28T00:30:11;3.67;;;1.45;;
65751;SDS011;52486;51.098;13.770;2023-02-28T00:32:38;1.77;;;1.45;;
65751;SDS011;52486;51.098;13.770;2023-02-28T00:35:06;2.00;;;1.60;;
65751;SDS011;52486;51.098;13.770;2023-02-28T00:37:32;1.50;;;1.40;;
65751;SDS011;52486;51.098;13.770;2023-02-28T00:39:58;1.50;;;1.40;;
65751;SDS011;52486;51.098;13.770;2023-02-28T00:42:25;2.15;;;1.60;;
65751;SDS011;52486;51.098;13.770;2023-02-28T00:44:51;1.27;;;1.17;;
65751;SDS011;52486;51.098;13.770;2023-02-28T00:47:17;1.60;;;1.50;;
65751;SDS011;52486;51.098;13.770;2023-02-28T00:49:44;1.40;;;1.30;;
65751;SDS011;52486;51.098;13.770;2023-02-28T00:52:10;1.98;;;1.50;;
65751;SDS011;52486;51.098;13.770;2023-02-28T00:54:36;1.70;;;1.40;;
65751;SDS011;52486;51.098;13.770;2023-02-28T00:57:02;1.75;;;1.63;;
65751;SDS011;52486;51.098;13.770;2023-02-28T00:59:28;2.30;;;1.80;;
65751;SDS011;52486;51.098;13.770;2023-02-28T01:01:54;1.55;;;1.25;;
65751;SDS011;52486;51.098;13.770;2023-02-28T01:04:20;3.05;;;1.45;;
65751;SDS011;52486;51.098;13.770;2023-02-28T01:06:47;2.90;;;1.58;;
65751;SDS011;52486;51.098;13.770;2023-02-28T01:09:13;1.85;;;1.52;;
65751;SDS011;52486;51.098;13.770;2023-02-28T01:11:39;1.55;;;1.33;;
65751;SDS011;52486;51.098;13.770;2023-02-28T01:14:06;2.05;;;1.38;;
65751;SDS011;52486;51.098;13.770;2023-02-28T01:16:32;2.10;;;1.40;;
65751;SDS011;52486;51.098;13.770;2023-02-28T01:18:59;2.47;;;1.42;;
65751;SDS011;52486;51.098;13.770;2023-02-28T01:21:25;1.73;;;1.60;;
65751;SDS011;52486;51.098;13.770;2023-02-28T01:23:51;2.28;;;1.40;;
65751;SDS011;52486;51.098;13.770;2023-02-28T01:26:21;1.60;;;1.50;;
65751;SDS011;52486;51.098;13.770;2023-02-28T01:28:49;1.95;;;1.50;;
65751;SDS011;52486;51.098;13.770;2023-02-28T01:31:15;1.42;;;1.33;;
65751;SDS011;52486;51.098;13.770;2023-02-28T01:33:43;1.55;;;1.45;;
65751;SDS011;52486;51.098;13.770;2023-02-28T01:36:13;1.88;;;1.40;;
65751;SDS011;52486;51.098;13.770;2023-02-28T01:38:40;1.90;;;1.70;;
65751;SDS011;52486;51.098;13.770;2023-02-28T01:41:07;1.50;;;1.40;;
65751;SDS011;52486;51.098;13.770;2023-02-28T01:46:09;2.60;;;1.50;;
65751;SDS011;52486;51.098;13.770;2023-02-28T01:48:36;1.50;;;1.40;;
65751;SDS011;52486;51.098;13.770;2023-02-28T01:51:13;3.40;;;1.33;;
65751;SDS011;52486;51.098;13.770;2023-02-28T01:53:45;1.67;;;1.58;;
65751;SDS011;52486;51.098;13.770;2023-02-28T01:56:13;1.60;;;1.50;;
65751;SDS011;52486;51.098;13.770;2023-02-28T01:58:49;1.67;;;1.40;;
65751;SDS011;52486;51.098;13.770;2023-02-28T02:01:16;1.40;;;1.20;;
65751;SDS011;52486;51.098;13.770;2023-02-28T02:03:47;1.67;;;1.33;;
65751;SDS011;52486;51.098;13.770;2023-02-28T02:06:20;1.52;;;1.42;;
65751;SDS011;52486;51.098;13.770;2023-02-28T02:08:47;1.38;;;1.27;;
65751;SDS011;52486;51.098;13.770;2023-02-28T02:11:13;1.70;;;1.60;;
65751;SDS011;52486;51.098;13.770;2023-02-28T02:18:46;1.73;;;1.40;;
65751;SDS011;52486;51.098;13.770;2023-02-28T02:26:57;1.50;;;1.40;;
65751;SDS011;52486;51.098;13.770;2023-02-28T02:39:49;1.40;;;1.27;;
65751;SDS011;52486;51.098;13.770;2023-02-28T02:42:23;2.67;;;1.50;;
65751;SDS011;52486;51.098;13.770;2023-02-28T02:44:55;1.63;;;1.52;;
65751;SDS011;52486;51.098;13.770;2023-02-28T02:49:50;2.40;;;1.40;;
65751;SDS011;52486;51.098;13.770;2023-02-28T02:52:18;2.00;;;1.40;;
65751;SDS011;52486;51.098;13.770;2023-02-28T02:54:46;3.60;;;1.60;;
65751;SDS011;52486;51.098;13.770;2023-02-28T02:57:17;1.50;;;1.30;;
65751;SDS011;52486;51.098;13.770;2023-02-28T02:59:46;1.95;;;1.70;;
65751;SDS011;52486;51.098;13.770;2023-02-28T03:02:14;3.13;;;1.30;;
65751;SDS011;52486;51.098;13.770;2023-02-28T03:04:46;1.88;;;1.38;;
65751;SDS011;52486;51.098;13.770;2023-02-28T03:07:14;1.65;;;1.40;;
65751;SDS011;52486;51.098;13.770;2023-02-28T03:09:40;1.42;;;1.33;;
65751;SDS011;52486;51.098;13.770;2023-02-28T03:12:09;1.40;;;1.20;;
65751;SDS011;52486;51.098;13.770;2023-02-28T03:14:47;1.55;;;1.40;;
65751;SDS011;52486;51.098;13.770;2023-02-28T03:27:06;1.65;;;1.25;;
65751;SDS011;52486;51.098;13.770;2023-02-28T03:29:40;1.50;;;1.40;;
65751;SDS011;52486;51.098;13.770;2023-02-28T03:32:12;2.28;;;1.40;;
65751;SDS011;52486;51.098;13.770;2023-02-28T03:34:48;1.63;;;1.40;;
65751;SDS011;52486;51.098;13.770;2023-02-28T03:37:18;1.55;;;1.45;;
65751;SDS011;52486;51.098;13.770;2023-02-28T03:39:47;3.05;;;1.40;;
65751;SDS011;52486;51.098;13.770;2023-02-28T03:42:15;1.90;;;1.25;;
65751;SDS011;52486;51.098;13.770;2023-02-28T03:49:46;1.83;;;1.33;;
65751;SDS011;52486;51.098;13.770;2023-02-28T03:52:15;1.52;;;1.42;;
65751;SDS011;52486;51.098;13.770;2023-02-28T03:54:44;1.90;;;1.73;;
65751;SDS011;52486;51.098;13.770;2023-02-28T03:59:56;1.98;;;1.30;;
65751;SDS011;52486;51.098;13.770;2023-02-28T04:02:25;1.30;;;1.20;;
65751;SDS011;52486;51.098;13.770;2023-02-28T04:04:51;2.25;;;1.30;;
65751;SDS011;52486;51.098;13.770;2023-02-28T04:07:17;2.38;;;1.30;;
65751;SDS011;52486;51.098;13.770;2023-02-28T04:09:43;1.77;;;1.65;;
65751;SDS011;52486;51.098;13.770;2023-02-28T04:12:09;4.32;;;1.60;;
65751;SDS011;52486;51.098;13.770;2023-02-28T04:14:36;1.65;;;1.33;;
65751;SDS011;52486;51.098;13.770;2023-02-28T04:17:02;2.08;;;1.33;;
65751;SDS011;52486;51.098;13.770;2023-02-28T04:19:28;1.70;;;1.60;;
65751;SDS011;52486;51.098;13.770;2023-02-28T04:21:54;1.55;;;1.40;;
65751;SDS011;52486;51.098;13.770;2023-02-28T04:24:21;1.70;;;1.60;;
65751;SDS011;52486;51.098;13.770;2023-02-28T04:26:49;2.08;;;1.52;;
65751;SDS011;52486;51.098;13.770;2023-02-28T04:29:20;1.75;;;1.52;;
65751;SDS011;52486;51.098;13.770;2023-02-28T04:31:46;2.28;;;1.70;;
65751;SDS011;52486;51.098;13.770;2023-02-28T04:34:14;2.58;;;1.85;;
65751;SDS011;52486;51.098;13.770;2023-02-28T04:36:40;1.65;;;1.42;;
65751;SDS011;52486;51.098;13.770;2023-02-28T04:39:06;1.55;;;1.42;;
65751;SDS011;52486;51.098;13.770;2023-02-28T04:41:32;1.90;;;1.30;;
65751;SDS011;52486;51.098;13.770;2023-02-28T04:43:59;3.13;;;1.50;;
65751;SDS011;52486;51.098;13.770;2023-02-28T04:46:25;2.15;;;1.30;;
65751;SDS011;52486;51.098;13.770;2023-02-28T04:48:51;2.08;;;1.70;;
65751;SDS011;52486;51.098;13.770;2023-02-28T04:51:18;3.03;;;1.58;;
65751;SDS011;52486;51.098;13.770;2023-02-28T04:53:45;1.60;;;1.50;;
65751;SDS011;52486;51.098;13.770;2023-02-28T04:56:13;1.80;;;1.60;;
65751;SDS011;52486;51.098;13.770;2023-02-28T04:58:40;2.38;;;1.50;;
65751;SDS011;52486;51.098;13.770;2023-02-28T05:01:07;1.58;;;1.38;;
65751;SDS011;52486;51.098;13.770;2023-02-28T05:03:41;1.73;;;1.60;;
65751;SDS011;52486;51.098;13.770;2023-02-28T05:06:08;1.55;;;1.40;;
65751;SDS011;52486;51.098;13.770;2023-02-28T05:08:34;1.58;;;1.42;;
65751;SDS011;52486;51.098;13.770;2023-02-28T05:11:00;2.67;;;1.77;;
65751;SDS011;52486;51.098;13.770;2023-02-28T05:13:27;1.70;;;1.50;;
65751;SDS011;52486;51.098;13.770;2023-02-28T05:15:54;4.30;;;1.60;;
65751;SDS011;52486;51.098;13.770;2023-02-28T05:18:20;2.40;;;1.67;;
65751;SDS011;52486;51.098;13.770;2023-02-28T05:20:46;1.80;;;1.70;;
65751;SDS011;52486;51.098;13.770;2023-02-28T05:23:12;2.50;;;1.70;;
65751;SDS011;52486;51.098;13.770;2023-02-28T05:25:39;1.52;;;1.42;;
65751;SDS011;52486;51.098;13.770;2023-02-28T05:28:05;2.47;;;1.92;;
65751;SDS011;52486;51.098;13.770;2023-02-28T05:30:32;1.75;;;1.65;;
65751;SDS011;52486;51.098;13.770;2023-02-28T05:32:58;2.88;;;2.05;;
65751;SDS011;52486;51.098;13.770;2023-02-28T05:35:24;2.42;;;1.50;;
65751;SDS011;52486;51.098;13.770;2023-02-28T05:37:51;1.80;;;1.70;;
65751;SDS011;52486;51.098;13.770;2023-02-28T05:40:17;2.15;;;1.85;;
65751;SDS011;52486;51.098;13.770;2023-02-28T05:42:45;1.95;;;1.58;;
65751;SDS011;52486;51.098;13.770;2023-02-28T05:45:12;2.63;;;1.52;;
65751;SDS011;52486;51.098;13.770;2023-02-28T05:47:38;2.15;;;1.40;;
65751;SDS011;52486;51.098;13.770;2023-02-28T05:50:05;1.88;;;1.63;;
65751;SDS011;52486;51.098;13.770;2023-02-28T05:52:31;2.55;;;1.60;;
65751;SDS011;52486;51.098;13.770;2023-02-28T05:54:57;2.58;;;1.90;;
65751;SDS011;52486;51.098;13.770;2023-02-28T05:57:24;1.85;;;1.60;;
65751;SDS011;52486;51.098;13.770;2023-02-28T05:59:50;6.70;;;1.80;;
65751;SDS011;52486;51.098;13.770;2023-02-28T06:02:17;2.13;;;1.50;;
65751;SDS011;52486;51.098;13.770;2023-02-28T06:04:43;1.50;;;1.40;;
65751;SDS011;52486;51.098;13.770;2023-02-28T06:07:10;3.45;;;1.50;;
65751;SDS011;52486;51.098;13.770;2023-02-28T06:09:36;1.60;;;1.50;;
65751;SDS011;52486;51.098;13.770;2023-02-28T06:12:04;3.67;;;1.80;;
65751;SDS011;52486;51.098;13.770;2023-02-28T06:14:34;2.65;;;1.42;;
65751;SDS011;52486;51.098;13.770;2023-02-28T06:17:01;2.38;;;1.70;;
65751;SDS011;52486;51.098;13.770;2023-02-28T06:19:28;2.17;;;1.80;;
65751;SDS011;52486;51.098;13.770;2023-02-28T06:21:55;2.92;;;1.52;;
65751;SDS011;52486;51.098;13.770;2023-02-28T06:24:22;1.95;;;1.60;;
65751;SDS011;52486;51.098;13.770;2023-02-28T06:26:48;4.07;;;1.73;;
65751;SDS011;52486;51.098;13.770;2023-02-28T06:29:15;2.35;;;1.70;;
65751;SDS011;52486;51.098;13.770;2023-02-28T06:31:45;4.63;;;1.80;;
65751;SDS011;52486;51.098;13.770;2023-02-28T06:34:11;2.45;;;1.77;;
65751;SDS011;52486;51.098;13.770;2023-02-28T06:36:38;2.40;;;1.75;;
65751;SDS011;52486;51.098;13.770;2023-02-28T06:39:04;3.90;;;2.15;;
65751;SDS011;52486;51.098;13.770;2023-02-28T06:41:31;8.77;;;3.88;;
65751;SDS011;52486;51.098;13.770;2023-02-28T06:44:02;4.60;;;3.63;;
65751;SDS011;52486;51.098;13.770;2023-02-28T06:46:28;4.68;;;3.70;;
65751;SDS011;52486;51.098;13.770;2023-02-28T06:48:54;7.55;;;4.43;;
65751;SDS011;52486;51.098;13.770;2023-02-28T06:51:20;5.53;;;3.17;;
65751;SDS011;52486;51.098;13.770;2023-02-28T06:53:47;10.02;;;3.60;;
65751;SDS011;52486;51.098;13.770;2023-02-28T06:56:14;8.70;;;3.53;;
65751;SDS011;52486;51.098;13.770;2023-02-28T06:58:40;5.20;;;3.67;;
65751;SDS011;52486;51.098;13.770;2023-02-28T07:01:07;6.07;;;3.75;;
65751;SDS011;52486;51.098;13.770;2023-02-28T07:03:34;7.20;;;3.45;;
65751;SDS011;52486;51.098;13.770;2023-02-28T07:06:00;4.25;;;3.13;;
65751;SDS011;52486;51.098;13.770;2023-02-28T07:08:27;5.22;;;3.20;;
65751;SDS011;52486;51.098;13.770;2023-02-28T07:10:54;11.25;;;3.70;;
65751;SDS011;52486;51.098;13.770;2023-02-28T07:13:20;9.23;;;3.78;;
65751;SDS011;52486;51.098;13.770;2023-02-28T07:15:57;7.85;;;3.17;;
65751;SDS011;52486;51.098;13.770;2023-02-28T07:18:23;4.97;;;3.30;;
65751;SDS011;52486;51.098;13.770;2023-02-28T07:20:51;6.05;;;3.13;;
65751;SDS011;52486;51.098;13.770;2023-02-28T07:23:17;5.30;;;3.72;;
65751;SDS011;52486;51.098;13.770;2023-02-28T07:25:43;7.90;;;3.25;;
65751;SDS011;52486;51.098;13.770;2023-02-28T07:28:11;7.53;;;3.47;;
65751;SDS011;52486;51.098;13.770;2023-02-28T07:30:37;8.70;;;2.60;;
65751;SDS011;52486;51.098;13.770;2023-02-28T07:33:03;6.68;;;3.05;;
65751;SDS011;52486;51.098;13.770;2023-02-28T07:35:29;8.43;;;3.58;;
65751;SDS011;52486;51.098;13.770;2023-02-28T07:37:59;6.88;;;3.30;;
65751;SDS011;52486;51.098;13.770;2023-02-28T07:40:25;8.75;;;3.30;;
65751;SDS011;52486;51.098;13.770;2023-02-28T07:42:51;7.50;;;3.25;;
65751;SDS011;52486;51.098;13.770;2023-02-28T07:45:17;10.00;;;3.35;;
65751;SDS011;52486;51.098;13.770;2023-02-28T07:47:44;10.57;;;3.28;;
65751;SDS011;52486;51.098;13.770;2023-02-28T07:50:12;8.32;;;3.38;;
65751;SDS011;52486;51.098;13.770;2023-02-28T07:52:39;4.88;;;2.83;;
65751;SDS011;52486;51.098;13.770;2023-02-28T07:55:06;5.65;;;3.03;;
65751;SDS011;52486;51.098;13.770;2023-02-28T07:57:32;13.57;;;3.60;;
65751;SDS011;52486;51.098;13.770;2023-02-28T07:59:58;33.08;;;3.97;;
65751;SDS011;52486;51.098;13.770;2023-02-28T08:02:25;17.35;;;3.80;;
65751;SDS011;52486;51.098;13.770;2023-02-28T08:04:51;20.10;;;4.07;;
65751;SDS011;52486;51.098;13.770;2023-02-28T08:07:17;22.10;;;3.72;;
65751;SDS011;52486;51.098;13.770;2023-02-28T08:09:44;17.08;;;4.03;;
65751;SDS011;52486;51.098;13.770;2023-02-28T08:12:10;15.52;;;3.88;;
65751;SDS011;52486;51.098;13.770;2023-02-28T08:14:37;23.60;;;5.15;;
65751;SDS011;52486;51.098;13.770;2023-02-28T08:17:04;17.83;;;4.25;;
65751;SDS011;52486;51.098;13.770;2023-02-28T08:19:30;24.30;;;4.60;;
65751;SDS011;52486;51.098;13.770;2023-02-28T08:21:57;29.70;;;4.40;;
65751;SDS011;52486;51.098;13.770;2023-02-28T08:24:23;22.63;;;4.53;;
65751;SDS011;52486;51.098;13.770;2023-02-28T08:26:49;22.02;;;4.55;;
65751;SDS011;52486;51.098;13.770;2023-02-28T08:29:16;17.13;;;4.28;;
65751;SDS011;52486;51.098;13.770;2023-02-28T08:31:42;33.90;;;4.43;;
65751;SDS011;52486;51.098;13.770;2023-02-28T08:34:09;20.75;;;4.30;;
65751;SDS011;52486;51.098;13.770;2023-02-28T08:36:35;24.30;;;3.85;;
65751;SDS011;52486;51.098;13.770;2023-02-28T08:39:02;28.60;;;4.25;;
65751;SDS011;52486;51.098;13.770;2023-02-28T08:41:28;20.80;;;4.00;;
65751;SDS011;52486;51.098;13.770;2023-02-28T08:43:54;22.63;;;4.10;;
65751;SDS011;52486;51.098;13.770;2023-02-28T08:46:21;19.67;;;4.20;;
65751;SDS011;52486;51.098;13.770;2023-02-28T08:48:56;19.80;;;4.20;;
65751;SDS011;52486;51.098;13.770;2023-02-28T08:51:27;25.63;;;3.63;;
65751;SDS011;52486;51.098;13.770;2023-02-28T08:53:54;18.58;;;3.53;;
65751;SDS011;52486;51.098;13.770;2023-02-28T08:56:20;18.45;;;3.28;;
65751;SDS011;52486;51.098;13.770;2023-02-28T08:58:48;19.83;;;4.05;;
65751;SDS011;52486;51.098;13.770;2023-02-28T09:01:21;15.88;;;3.30;;
65751;SDS011;52486;51.098;13.770;2023-02-28T09:03:48;19.83;;;3.15;;
65751;SDS011;52486;51.098;13.770;2023-02-28T09:06:15;15.43;;;3.63;;
65751;SDS011;52486;51.098;13.770;2023-02-28T09:08:41;18.75;;;3.28;;
65751;SDS011;52486;51.098;13.770;2023-02-28T09:11:08;12.52;;;3.40;;
65751;SDS011;52486;51.098;13.770;2023-02-28T09:13:35;12.55;;;3.17;;
65751;SDS011;52486;51.098;13.770;2023-02-28T09:16:02;15.05;;;3.40;;
65751;SDS011;52486;51.098;13.770;2023-02-28T09:18:28;13.60;;;3.70;;
65751;SDS011;52486;51.098;13.770;2023-02-28T09:20:55;16.00;;;3.72;;
65751;SDS011;52486;51.098;13.770;2023-02-28T09:23:22;14.07;;;3.15;;
65751;SDS011;52486;51.098;13.770;2023-02-28T09:25:53;14.27;;;2.95;;
65751;SDS011;52486;51.098;13.770;2023-02-28T09:28:20;15.30;;;3.38;;
65751;SDS011;52486;51.098;13.770;2023-02-28T09:30:48;12.45;;;2.60;;
65751;SDS011;52486;51.098;13.770;2023-02-28T09:33:14;10.02;;;2.88;;
65751;SDS011;52486;51.098;13.770;2023-02-28T09:35:41;13.98;;;2.80;;
65751;SDS011;52486;51.098;13.770;2023-02-28T09:38:08;10.35;;;2.60;;
65751;SDS011;52486;51.098;13.770;2023-02-28T09:40:37;10.27;;;2.88;;
65751;SDS011;52486;51.098;13.770;2023-02-28T09:43:04;11.13;;;2.85;;
65751;SDS011;52486;51.098;13.770;2023-02-28T09:45:33;17.17;;;3.00;;
65751;SDS011;52486;51.098;13.770;2023-02-28T09:48:10;8.25;;;2.75;;
65751;SDS011;52486;51.098;13.770;2023-02-28T09:50:38;9.90;;;2.47;;
65751;SDS011;52486;51.098;13.770;2023-02-28T09:56:06;10.60;;;2.83;;
65751;SDS011;52486;51.098;13.770;2023-02-28T09:58:36;14.35;;;2.78;;
65751;SDS011;52486;51.098;13.770;2023-02-28T10:01:09;8.43;;;2.30;;
65751;SDS011;52486;51.098;13.770;2023-02-28T10:03:40;9.20;;;2.88;;
65751;SDS011;52486;51.098;13.770;2023-02-28T10:06:12;11.20;;;2.63;;
65751;SDS011;52486;51.098;13.770;2023-02-28T10:11:41;10.18;;;2.83;;
65751;SDS011;52486;51.098;13.770;2023-02-28T10:16:41;6.78;;;2.45;;
65751;SDS011;52486;51.098;13.770;2023-02-28T10:19:25;15.02;;;2.75;;
65751;SDS011;52486;51.098;13.770;2023-02-28T10:24:28;16.45;;;2.45;;
65751;SDS011;52486;51.098;13.770;2023-02-28T10:26:59;10.85;;;2.55;;
65751;SDS011;52486;51.098;13.770;2023-02-28T10:29:26;11.77;;;2.80;;
65751;SDS011;52486;51.098;13.770;2023-02-28T10:31:54;10.95;;;2.90;;
65751;SDS011;52486;51.098;13.770;2023-02-28T10:34:21;15.68;;;2.67;;
65751;SDS011;52486;51.098;13.770;2023-02-28T10:36:47;12.80;;;3.00;;
65751;SDS011;52486;51.098;13.770;2023-02-28T10:39:34;15.23;;;2.97;;
65751;SDS011;52486;51.098;13.770;2023-02-28T10:42:01;15.15;;;3.40;;
65751;SDS011;52486;51.098;13.770;2023-02-28T10:44:27;5.75;;;3.42;;
65751;SDS011;52486;51.098;13.770;2023-02-28T10:46:53;6.97;;;2.78;;
65751;SDS011;52486;51.098;13.770;2023-02-28T10:49:21;8.30;;;3.50;;
65751;SDS011;52486;51.098;13.770;2023-02-28T10:51:48;8.27;;;3.55;;
65751;SDS011;52486;51.098;13.770;2023-02-28T10:54:26;7.63;;;3.92;;
65751;SDS011;52486;51.098;13.770;2023-02-28T11:00:36;8.15;;;3.47;;
65751;SDS011;52486;51.098;13.770;2023-02-28T11:02:44;7.30;;;2.90;;
65751;SDS011;52486;51.098;13.770;2023-02-28T11:05:24;6.93;;;2.83;;
65751;SDS011;52486;51.098;13.770;2023-02-28T11:07:54;7.18;;;2.90;;
65751;SDS011;52486;51.098;13.770;2023-02-28T11:10:30;8.23;;;2.40;;
65751;SDS011;52486;51.098;13.770;2023-02-28T11:13:00;8.20;;;2.95;;
65751;SDS011;52486;51.098;13.770;2023-02-28T11:15:27;13.18;;;3.33;;
65751;SDS011;52486;51.098;13.770;2023-02-28T11:17:58;8.45;;;3.38;;
65751;SDS011;52486;51.098;13.770;2023-02-28T11:20:26;6.97;;;2.97;;
65751;SDS011;52486;51.098;13.770;2023-02-28T11:22:53;5.18;;;2.83;;
65751;SDS011;52486;51.098;13.770;2023-02-28T11:25:22;6.53;;;3.25;;
65751;SDS011;52486;51.098;13.770;2023-02-28T11:27:49;11.68;;;3.30;;
65751;SDS011;52486;51.098;13.770;2023-02-28T11:30:30;7.05;;;3.03;;
65751;SDS011;52486;51.098;13.770;2023-02-28T11:32:56;12.63;;;3.20;;
65751;SDS011;52486;51.098;13.770;2023-02-28T11:35:24;7.03;;;3.50;;
65751;SDS011;52486;51.098;13.770;2023-02-28T11:37:51;8.98;;;3.30;;
65751;SDS011;52486;51.098;13.770;2023-02-28T11:46:16;7.60;;;3.55;;
65751;SDS011;52486;51.098;13.770;2023-02-28T11:48:23;8.90;;;2.53;;
65751;SDS011;52486;51.098;13.770;2023-02-28T11:50:54;7.53;;;2.95;;
65751;SDS011;52486;51.098;13.770;2023-02-28T12:01:14;8.48;;;3.25;;
65751;SDS011;52486;51.098;13.770;2023-02-28T12:11:39;7.43;;;3.30;;
65751;SDS011;52486;51.098;13.770;2023-02-28T12:14:17;9.68;;;3.80;;
65751;SDS011;52486;51.098;13.770;2023-02-28T12:16:57;6.88;;;3.63;;
65751;SDS011;52486;51.098;13.770;2023-02-28T12:26:57;6.00;;;3.22;;
65751;SDS011;52486;51.098;13.770;2023-02-28T12:29:26;8.82;;;3.03;;
65751;SDS011;52486;51.098;13.770;2023-02-28T12:34:33;5.55;;;3.65;;
65751;SDS011;52486;51.098;13.770;2023-02-28T12:37:02;9.07;;;3.15;;
65751;SDS011;52486;51.098;13.770;2023-02-28T12:39:30;8.88;;;3.08;;
65751;SDS011;52486;51.098;13.770;2023-02-28T12:42:05;7.32;;;3.08;;
65751;SDS011;52486;51.098;13.770;2023-02-28T12:46:59;6.07;;;2.90;;
65751;SDS011;52486;51.098;13.770;2023-02-28T12:52:11;7.80;;;2.90;;
65751;SDS011;52486;51.098;13.770;2023-02-28T12:54:46;4.88;;;3.00;;
65751;SDS011;52486;51.098;13.770;2023-02-28T12:57:17;5.85;;;3.08;;
65751;SDS011;52486;51.098;13.770;2023-02-28T12:59:49;5.85;;;2.60;;
65751;SDS011;52486;51.098;13.770;2023-02-28T13:04:57;6.45;;;2.38;;
65751;SDS011;52486;51.098;13.770;2023-02-28T13:07:43;5.43;;;2.70;;
65751;SDS011;52486;51.098;13.770;2023-02-28T13:10:15;5.72;;;2.85;;
65751;SDS011;52486;51.098;13.770;2023-02-28T13:12:47;6.93;;;2.90;;
65751;SDS011;52486;51.098;13.770;2023-02-28T13:17:51;4.20;;;2.50;;
65751;SDS011;52486;51.098;13.770;2023-02-28T13:20:19;6.25;;;2.65;;
65751;SDS011;52486;51.098;13.770;2023-02-28T13:22:46;6.65;;;2.92;;
65751;SDS011;52486;51.098;13.770;2023-02-28T13:25:59;7.07;;;2.63;;
65751;SDS011;52486;51.098;13.770;2023-02-28T13:28:01;6.10;;;2.58;;
65751;SDS011;52486;51.098;13.770;2023-02-28T13:33:21;4.80;;;2.67;;
65751;SDS011;52486;51.098;13.770;2023-02-28T13:38:32;7.15;;;2.70;;
65751;SDS011;52486;51.098;13.770;2023-02-28T13:46:29;10.88;;;3.30;;
65751;SDS011;52486;51.098;13.770;2023-02-28T13:48:55;8.30;;;4.07;;
65751;SDS011;52486;51.098;13.770;2023-02-28T13:56:48;8.68;;;4.00;;
65751;SDS011;52486;51.098;13.770;2023-02-28T14:02:09;6.57;;;3.40;;
65751;SDS011;52486;51.098;13.770;2023-02-28T14:04:47;7.70;;;3.30;;
65751;SDS011;52486;51.098;13.770;2023-02-28T14:07:17;10.07;;;3.40;;
65751;SDS011;52486;51.098;13.770;2023-02-28T14:09:49;7.57;;;3.38;;
65751;SDS011;52486;51.098;13.770;2023-02-28T14:15:02;8.82;;;3.47;;
65751;SDS011;52486;51.098;13.770;2023-02-28T14:17:30;5.78;;;3.60;;
65751;SDS011;52486;51.098;13.770;2023-02-28T14:19:57;11.45;;;3.75;;
65751;SDS011;52486;51.098;13.770;2023-02-28T14:25:04;10.50;;;3.72;;
65751;SDS011;52486;51.098;13.770;2023-02-28T14:27:37;14.05;;;4.40;;
65751;SDS011;52486;51.098;13.770;2023-02-28T14:35:43;9.15;;;3.55;;
65751;SDS011;52486;51.098;13.770;2023-02-28T14:38:17;7.93;;;3.45;;
65751;SDS011;52486;51.098;13.770;2023-02-28T14:40:44;4.90;;;2.83;;
65751;SDS011;52486;51.098;13.770;2023-02-28T14:43:18;4.60;;;3.20;;
65751;SDS011;52486;51.098;13.770;2023-02-28T14:45:47;6.43;;;3.70;;
65751;SDS011;52486;51.098;13.770;2023-02-28T14:48:15;9.60;;;3.38;;
65751;SDS011;52486;51.098;13.770;2023-02-28T14:50:42;4.97;;;3.17;;
65751;SDS011;52486;51.098;13.770;2023-02-28T14:53:15;8.63;;;3.10;;
65751;SDS011;52486;51.098;13.770;2023-02-28T14:55:46;9.20;;;3.40;;
65751;SDS011;52486;51.098;13.770;2023-02-28T14:58:20;6.82;;;3.30;;
65751;SDS011;52486;51.098;13.770;2023-02-28T15:00:47;8.98;;;3.17;;
65751;SDS011;52486;51.098;13.770;2023-02-28T15:03:24;9.55;;;3.20;;
65751;SDS011;52486;51.098;13.770;2023-02-28T15:05:55;7.50;;;3.00;;
65751;SDS011;52486;51.098;13.770;2023-02-28T15:08:23;5.32;;;3.17;;
65751;SDS011;52486;51.098;13.770;2023-02-28T15:11:00;7.18;;;3.10;;
65751;SDS011;52486;51.098;13.770;2023-02-28T15:13:31;6.03;;;3.63;;
65751;SDS011;52486;51.098;13.770;2023-02-28T15:16:01;4.85;;;3.20;;
65751;SDS011;52486;51.098;13.770;2023-02-28T15:18:45;4.88;;;3.17;;
65751;SDS011;52486;51.098;13.770;2023-02-28T15:21:15;4.72;;;3.30;;
65751;SDS011;52486;51.098;13.770;2023-02-28T15:23:44;9.05;;;3.40;;
65751;SDS011;52486;51.098;13.770;2023-02-28T15:26:19;10.23;;;3.53;;
65751;SDS011;52486;51.098;13.770;2023-02-28T15:28:47;12.70;;;3.67;;
65751;SDS011;52486;51.098;13.770;2023-02-28T15:31:26;7.88;;;3.88;;
65751;SDS011;52486;51.098;13.770;2023-02-28T15:33:54;7.82;;;3.90;;
65751;SDS011;52486;51.098;13.770;2023-02-28T15:36:20;8.48;;;3.58;;
65751;SDS011;52486;51.098;13.770;2023-02-28T15:38:51;6.45;;;4.05;;
65751;SDS011;52486;51.098;13.770;2023-02-28T15:41:24;6.88;;;3.65;;
65751;SDS011;52486;51.098;13.770;2023-02-28T15:44:13;8.13;;;3.70;;
65751;SDS011;52486;51.098;13.770;2023-02-28T15:46:36;8.60;;;4.57;;
65751;SDS011;52486;51.098;13.770;2023-02-28T15:49:03;16.20;;;3.83;;
65751;SDS011;52486;51.098;13.770;2023-02-28T15:51:32;5.88;;;3.80;;
65751;SDS011;52486;51.098;13.770;2023-02-28T15:54:06;11.55;;;3.45;;
65751;SDS011;52486;51.098;13.770;2023-02-28T15:56:33;8.68;;;3.78;;
65751;SDS011;52486;51.098;13.770;2023-02-28T15:59:02;6.85;;;3.75;;
65751;SDS011;52486;51.098;13.770;2023-02-28T16:01:30;6.80;;;3.33;;
65751;SDS011;52486;51.098;13.770;2023-02-28T16:03:58;14.88;;;3.47;;
65751;SDS011;52486;51.098;13.770;2023-02-28T16:06:36;7.63;;;3.78;;
65751;SDS011;52486;51.098;13.770;2023-02-28T16:09:03;10.30;;;3.67;;
65751;SDS011;52486;51.098;13.770;2023-02-28T16:11:30;10.10;;;3.65;;
65751;SDS011;52486;51.098;13.770;2023-02-28T16:13:58;8.35;;;3.58;;
65751;SDS011;52486;51.098;13.770;2023-02-28T16:16:24;5.60;;;3.38;;
65751;SDS011;52486;51.098;13.770;2023-02-28T16:18:51;5.38;;;3.42;;
65751;SDS011;52486;51.098;13.770;2023-02-28T16:21:18;5.25;;;3.15;;
65751;SDS011;52486;51.098;13.770;2023-02-28T16:23:44;6.68;;;3.83;;
65751;SDS011;52486;51.098;13.770;2023-02-28T16:26:16;20.35;;;3.95;;
65751;SDS011;52486;51.098;13.770;2023-02-28T16:28:44;11.10;;;3.78;;
65751;SDS011;52486;51.098;13.770;2023-02-28T16:31:10;9.45;;;3.72;;
65751;SDS011;52486;51.098;13.770;2023-02-28T16:33:43;7.32;;;3.45;;
65751;SDS011;52486;51.098;13.770;2023-02-28T16:36:13;4.88;;;2.92;;
65751;SDS011;52486;51.098;13.770;2023-02-28T16:41:06;7.35;;;3.42;;
65751;SDS011;52486;51.098;13.770;2023-02-28T16:43:33;10.23;;;3.78;;
65751;SDS011;52486;51.098;13.770;2023-02-28T16:46:00;10.98;;;3.53;;
65751;SDS011;52486;51.098;13.770;2023-02-28T16:48:29;7.07;;;3.50;;
65751;SDS011;52486;51.098;13.770;2023-02-28T16:50:55;10.60;;;3.67;;